createdAt,value
2018-11-11T00:00:09.817Z,14.85
2018-11-11T00:02:37.888Z,14.82
2018-11-11T00:05:06.965Z,14.82
2018-11-11T00:07:35.157Z,14.79
2018-11-11T00:10:03.338Z,14.71
2018-11-11T00:12:31.458Z,14.66
2018-11-11T00:14:59.610Z,14.63
2018-11-11T00:17:27.721Z,14.66
2018-11-11T00:19:55.838Z,14.63
2018-11-11T00:22:24.298Z,14.62
2018-11-11T00:24:52.638Z,14.59
2018-11-11T00:27:20.777Z,14.61
2018-11-11T00:29:48.884Z,14.47
2018-11-11T00:32:17.047Z,14.41
2018-11-11T00:34:45.199Z,14.34
2018-11-11T00:37:13.300Z,14.26
2018-11-11T00:39:41.474Z,14.18
2018-11-11T00:42:09.533Z,14.17
2018-11-11T00:44:37.619Z,14.17
2018-11-11T00:47:05.995Z,14.18
2018-11-11T00:49:34.232Z,14.15
2018-11-11T00:52:02.426Z,14.15
2018-11-11T00:54:30.496Z,14.12
2018-11-11T00:56:58.661Z,14.11
2018-11-11T00:59:26.751Z,14.13
2018-11-11T01:01:54.895Z,14.22
2018-11-11T01:04:23.229Z,14.25
2018-11-11T01:06:51.365Z,14.29
2018-11-11T01:09:19.639Z,14.35
2018-11-11T01:11:47.797Z,14.28
2018-11-11T01:14:15.894Z,14.37
2018-11-11T01:16:43.992Z,14.46
2018-11-11T01:19:12.207Z,14.49
2018-11-11T01:21:40.292Z,14.48
2018-11-11T01:24:08.482Z,14.52
2018-11-11T01:26:36.744Z,14.56
2018-11-11T01:29:05.185Z,14.57
2018-11-11T01:31:33.275Z,14.56
2018-11-11T01:34:01.401Z,14.56
2018-11-11T01:36:29.496Z,14.57
2018-11-11T01:38:57.618Z,14.58
2018-11-11T01:41:25.700Z,14.56
2018-11-11T01:43:53.786Z,14.61
2018-11-11T01:46:21.910Z,14.63
2018-11-11T01:48:49.997Z,14.66
2018-11-11T01:51:18.122Z,14.66
2018-11-11T01:53:46.204Z,14.68
2018-11-11T01:56:14.278Z,14.63
2018-11-11T01:58:42.366Z,14.61
2018-11-11T02:01:10.453Z,14.57
2018-11-11T02:03:38.576Z,14.57
2018-11-11T02:06:06.664Z,14.53
2018-11-11T02:08:34.751Z,14.57
2018-11-11T02:11:02.865Z,14.47
2018-11-11T02:13:31.037Z,14.46
2018-11-11T02:15:59.133Z,14.49
2018-11-11T02:18:27.279Z,14.48
2018-11-11T02:20:55.434Z,14.54
2018-11-11T02:23:23.482Z,14.48
2018-11-11T02:25:51.570Z,14.53
2018-11-11T02:28:19.649Z,14.51
2018-11-11T02:30:47.793Z,14.49
2018-11-11T02:33:15.914Z,14.48
2018-11-11T02:35:43.977Z,14.49
2018-11-11T02:38:12.045Z,14.49
2018-11-11T02:40:40.137Z,14.50
2018-11-11T02:43:08.237Z,14.54
2018-11-11T02:45:36.339Z,14.52
2018-11-11T02:48:04.464Z,14.55
2018-11-11T02:50:32.537Z,14.55
2018-11-11T02:53:00.633Z,14.58
2018-11-11T02:55:28.719Z,14.62
2018-11-11T02:57:56.804Z,14.60
2018-11-11T03:00:24.906Z,14.31
2018-11-11T03:02:52.969Z,14.09
2018-11-11T03:05:21.034Z,14.09
2018-11-11T03:07:49.144Z,14.07
2018-11-11T03:10:17.896Z,14.03
2018-11-11T03:12:46.794Z,14.06
2018-11-11T03:15:15.555Z,14.11
2018-11-11T03:17:43.654Z,14.08
2018-11-11T03:20:12.549Z,14.09
2018-11-11T03:22:40.652Z,14.07
2018-11-11T03:25:10.330Z,14.61
2018-11-11T03:27:38.491Z,14.65
2018-11-11T03:30:08.085Z,14.68
2018-11-11T03:32:36.211Z,14.66
2018-11-11T03:35:05.894Z,14.30
2018-11-11T03:37:34.004Z,14.08
2018-11-11T03:40:02.068Z,14.09
2018-11-11T03:42:30.176Z,14.12
2018-11-11T03:44:58.231Z,14.64
2018-11-11T03:47:26.376Z,14.75
2018-11-11T03:49:54.477Z,14.81
2018-11-11T03:52:22.563Z,14.84
2018-11-11T03:54:50.684Z,14.91
2018-11-11T03:57:18.755Z,14.93
2018-11-11T03:59:46.921Z,14.90
2018-11-11T04:02:14.999Z,14.91
2018-11-11T04:04:43.054Z,14.94
2018-11-11T04:07:11.153Z,15.05
2018-11-11T04:09:39.237Z,15.07
2018-11-11T04:12:07.318Z,15.08
2018-11-11T04:14:35.405Z,15.12
2018-11-11T04:17:03.481Z,15.15
2018-11-11T04:19:31.558Z,15.19
2018-11-11T04:22:03.960Z,15.17
2018-11-11T04:24:32.058Z,15.15
2018-11-11T04:27:00.133Z,15.18
2018-11-11T04:29:28.244Z,15.19
2018-11-11T04:31:56.305Z,15.18
2018-11-11T04:34:24.410Z,15.18
2018-11-11T04:36:52.528Z,14.79
2018-11-11T04:39:20.681Z,14.63
2018-11-11T04:41:48.709Z,14.52
2018-11-11T04:44:16.764Z,14.48
2018-11-11T04:46:44.849Z,14.43
2018-11-11T04:49:12.936Z,14.41
2018-11-11T04:51:41.025Z,14.39
2018-11-11T04:54:09.180Z,14.35
2018-11-11T04:56:37.277Z,14.28
2018-11-11T04:59:05.492Z,14.37
2018-11-11T05:01:33.882Z,14.35
2018-11-11T05:04:01.920Z,14.32
2018-11-11T05:06:30.027Z,14.32
2018-11-11T05:08:58.119Z,14.30
2018-11-11T05:11:26.190Z,14.30
2018-11-11T05:13:54.488Z,14.30
2018-11-11T05:16:22.605Z,14.26
2018-11-11T05:18:50.684Z,14.31
2018-11-11T05:21:18.822Z,14.29
2018-11-11T05:23:47.044Z,14.30
2018-11-11T05:26:15.099Z,14.30
2018-11-11T05:28:43.216Z,14.31
2018-11-11T05:31:11.291Z,14.30
2018-11-11T05:33:39.566Z,14.57
2018-11-11T05:36:07.653Z,14.79
2018-11-11T05:38:35.748Z,14.84
2018-11-11T05:41:03.836Z,14.84
2018-11-11T05:43:32.050Z,14.84
2018-11-11T05:46:00.161Z,14.83
2018-11-11T05:48:28.244Z,14.63
2018-11-11T05:50:56.377Z,14.41
2018-11-11T05:53:24.456Z,14.25
2018-11-11T05:55:52.528Z,14.14
2018-11-11T05:58:20.590Z,14.07
2018-11-11T06:00:48.729Z,14.01
2018-11-11T06:03:16.786Z,13.95
2018-11-11T06:05:44.897Z,13.91
2018-11-11T06:08:12.982Z,13.36
2018-11-11T06:10:41.107Z,13.19
2018-11-11T06:13:09.242Z,13.13
2018-11-11T06:15:37.348Z,13.15
2018-11-11T06:18:05.573Z,13.09
2018-11-11T06:20:33.674Z,13.07
2018-11-11T06:23:01.783Z,13.11
2018-11-11T06:25:29.839Z,13.17
2018-11-11T06:27:57.902Z,13.43
2018-11-11T06:30:25.952Z,13.17
2018-11-11T06:32:54.051Z,13.13
2018-11-11T06:35:22.184Z,13.63
2018-11-11T06:37:50.477Z,13.74
2018-11-11T06:40:18.605Z,13.77
2018-11-11T06:42:46.701Z,13.68
2018-11-11T06:45:15.736Z,13.57
2018-11-11T06:47:44.521Z,13.63
2018-11-11T06:50:13.757Z,13.64
2018-11-11T06:52:42.504Z,13.63
2018-11-11T06:55:10.900Z,13.66
2018-11-11T06:57:39.413Z,13.64
2018-11-11T07:00:09.533Z,13.65
2018-11-11T07:02:38.945Z,13.57
2018-11-11T07:05:08.302Z,13.63
2018-11-11T07:07:36.741Z,13.68
2018-11-11T07:10:05.484Z,13.73
2018-11-11T07:12:34.450Z,13.76
2018-11-11T07:15:02.519Z,13.81
2018-11-11T07:17:30.799Z,13.28
2018-11-11T07:19:58.914Z,13.26
2018-11-11T07:22:26.977Z,13.25
2018-11-11T07:24:55.096Z,13.27
2018-11-11T07:27:23.205Z,13.33
2018-11-11T07:29:51.281Z,13.36
2018-11-11T07:32:19.477Z,13.36
2018-11-11T07:34:47.549Z,13.43
2018-11-11T07:37:15.729Z,13.43
2018-11-11T07:39:43.821Z,13.40
2018-11-11T07:42:11.917Z,13.43
2018-11-11T07:44:40.044Z,13.44
2018-11-11T07:47:08.094Z,13.41
2018-11-11T07:49:36.186Z,13.40
2018-11-11T07:52:04.293Z,13.43
2018-11-11T07:54:32.421Z,13.47
2018-11-11T07:57:00.507Z,13.52
2018-11-11T07:59:28.644Z,13.52
2018-11-11T08:01:56.885Z,13.50
2018-11-11T08:04:24.932Z,13.56
2018-11-11T08:06:53.023Z,13.62
2018-11-11T08:09:21.085Z,13.59
2018-11-11T08:11:56.835Z,13.66
2018-11-11T08:14:25.413Z,13.67
2018-11-11T08:16:53.556Z,13.74
2018-11-11T08:19:21.574Z,13.66
2018-11-11T08:21:49.632Z,13.79
2018-11-11T08:24:18.196Z,13.86
2018-11-11T08:26:46.306Z,13.92
2018-11-11T08:29:14.393Z,13.96
2018-11-11T08:31:42.919Z,14.07
2018-11-11T08:34:11.022Z,14.17
2018-11-11T08:36:39.133Z,14.19
2018-11-11T08:39:09.695Z,14.21
2018-11-11T08:41:39.285Z,14.34
2018-11-11T08:44:07.705Z,14.35
2018-11-11T08:46:35.804Z,14.45
2018-11-11T08:49:03.864Z,14.48
2018-11-11T08:51:31.962Z,14.47
2018-11-11T08:54:00.025Z,14.55
2018-11-11T08:56:28.112Z,14.52
2018-11-11T08:58:56.172Z,14.66
2018-11-11T09:01:24.265Z,14.73
2018-11-11T09:03:52.677Z,14.81
2018-11-11T09:06:21.359Z,14.88
2018-11-11T09:08:49.813Z,14.99
2018-11-11T09:11:17.983Z,15.01
2018-11-11T09:13:46.118Z,15.04
2018-11-11T09:16:14.217Z,15.16
2018-11-11T09:18:42.333Z,15.28
2018-11-11T09:21:10.502Z,15.21
2018-11-11T09:23:38.615Z,15.33
2018-11-11T09:26:06.959Z,15.34
2018-11-11T09:28:35.045Z,15.40
2018-11-11T09:31:03.490Z,15.32
2018-11-11T09:33:31.647Z,15.33
2018-11-11T09:35:59.747Z,15.47
2018-11-11T09:38:27.820Z,15.50
2018-11-11T09:40:55.962Z,15.57
2018-11-11T09:43:24.034Z,15.64
2018-11-11T09:45:52.118Z,15.77
2018-11-11T09:48:20.198Z,15.79
2018-11-11T09:50:48.274Z,15.97
2018-11-11T09:53:16.335Z,16.07
2018-11-11T09:55:44.420Z,16.03
2018-11-11T09:58:12.522Z,16.07
2018-11-11T10:00:40.612Z,15.88
2018-11-11T10:03:13.968Z,15.94
2018-11-11T10:05:45.028Z,16.17
2018-11-11T10:08:20.754Z,16.24
2018-11-11T10:10:54.253Z,16.35
2018-11-11T10:14:27.321Z,16.30
2018-11-11T10:17:03.018Z,16.18
2018-11-11T10:21:40.803Z,16.29
2018-11-11T10:24:18.440Z,16.32
2018-11-11T10:26:52.154Z,16.25
2018-11-11T10:31:33.549Z,16.47
2018-11-11T10:34:05.182Z,16.45
2018-11-11T10:37:36.520Z,16.32
2018-11-11T10:40:11.976Z,16.37
2018-11-11T10:43:18.568Z,16.39
2018-11-11T10:46:04.973Z,16.35
2018-11-11T10:48:36.912Z,16.33
2018-11-11T10:51:06.142Z,16.36
2018-11-11T10:53:34.237Z,16.25
2018-11-11T10:56:02.326Z,16.31
2018-11-11T10:58:30.397Z,16.43
2018-11-11T11:01:03.907Z,16.45
2018-11-11T11:03:34.459Z,16.54
2018-11-11T11:06:03.373Z,16.78
2018-11-11T11:08:31.517Z,17.06
2018-11-11T11:10:59.604Z,17.32
2018-11-11T11:13:28.941Z,17.54
2018-11-11T11:15:57.538Z,19.86
2018-11-11T11:18:25.651Z,22.32
2018-11-11T11:20:53.720Z,23.35
2018-11-11T11:23:21.861Z,23.46
2018-11-11T11:25:49.977Z,23.87
2018-11-11T11:28:18.117Z,23.51
2018-11-11T11:30:46.225Z,24.07
2018-11-11T11:33:14.352Z,25.15
2018-11-11T11:35:42.639Z,24.48
2018-11-11T11:38:10.630Z,21.94
2018-11-11T11:40:38.661Z,20.44
2018-11-11T11:43:06.768Z,19.56
2018-11-11T11:45:34.906Z,19.18
2018-11-11T11:48:03.011Z,19.17
2018-11-11T11:50:31.157Z,18.88
2018-11-11T11:52:59.232Z,18.60
2018-11-11T11:55:27.256Z,18.40
2018-11-11T11:58:27.478Z,18.25
2018-11-11T12:00:55.656Z,17.91
2018-11-11T12:03:23.750Z,18.14
2018-11-11T12:05:51.804Z,18.25
2018-11-11T12:08:19.928Z,18.27
2018-11-11T12:10:48.005Z,18.28
2018-11-11T12:13:16.705Z,18.24
2018-11-11T12:15:45.282Z,18.06
2018-11-11T12:18:13.376Z,18.00
2018-11-11T12:20:42.060Z,17.82
2018-11-11T12:23:10.638Z,17.75
2018-11-11T12:25:39.348Z,17.76
2018-11-11T12:28:07.941Z,17.75
2018-11-11T12:30:36.053Z,17.65
2018-11-11T12:33:04.146Z,17.64
2018-11-11T12:35:32.276Z,17.60
2018-11-11T12:38:00.750Z,17.67
2018-11-11T12:40:28.837Z,17.77
2018-11-11T12:42:56.977Z,17.89
2018-11-11T12:45:25.142Z,17.91
2018-11-11T12:47:53.338Z,18.00
2018-11-11T12:50:21.548Z,18.13
2018-11-11T12:52:49.603Z,18.11
2018-11-11T12:55:17.752Z,18.17
2018-11-11T12:57:45.765Z,18.18
2018-11-11T13:00:15.039Z,18.25
2018-11-11T13:02:43.150Z,18.27
2018-11-11T13:05:11.765Z,18.21
2018-11-11T13:07:39.895Z,18.10
2018-11-11T13:10:10.669Z,18.05
2018-11-11T13:12:38.918Z,18.00
2018-11-11T13:15:08.393Z,17.96
2018-11-11T13:17:36.870Z,17.80
2018-11-11T13:20:06.702Z,17.89
2018-11-11T13:22:34.908Z,17.91
2018-11-11T13:25:02.857Z,17.93
2018-11-11T13:27:31.014Z,17.92
2018-11-11T13:29:59.144Z,17.82
2018-11-11T13:32:27.288Z,17.79
2018-11-11T13:34:55.445Z,17.82
2018-11-11T13:37:23.530Z,17.81
2018-11-11T13:39:51.684Z,17.84
2018-11-11T13:42:19.778Z,17.87
2018-11-11T13:44:47.977Z,17.89
2018-11-11T13:47:17.621Z,17.87
2018-11-11T13:49:45.817Z,17.82
2018-11-11T13:52:14.661Z,17.94
2018-11-11T13:54:42.742Z,18.01
2018-11-11T14:03:45.811Z,18.11
2018-11-11T14:06:31.430Z,18.10
2018-11-11T14:09:32.877Z,18.05
2018-11-11T14:12:00.933Z,18.07
2018-11-11T14:14:29.237Z,18.07
2018-11-11T14:39:15.326Z,17.91
2018-11-11T14:41:43.789Z,17.88
2018-11-11T14:44:11.901Z,17.85
2018-11-11T14:46:40.781Z,17.81
2018-11-11T14:49:09.829Z,17.80
2018-11-11T14:51:37.894Z,17.79
2018-11-11T14:54:06.153Z,17.79
2018-11-11T14:56:34.300Z,17.75
2018-11-11T14:59:02.445Z,17.73
2018-11-11T15:01:30.596Z,17.65
2018-11-11T15:03:58.727Z,17.68
2018-11-11T15:06:26.759Z,17.62
2018-11-11T15:08:54.850Z,17.61
2018-11-11T15:11:22.956Z,17.58
2018-11-11T15:13:51.041Z,17.57
2018-11-11T15:16:19.150Z,17.55
2018-11-11T15:18:47.301Z,17.53
2018-11-11T15:21:15.391Z,17.46
2018-11-11T15:23:43.499Z,17.39
2018-11-11T15:26:11.597Z,17.36
2018-11-11T15:28:39.733Z,17.28
2018-11-11T15:31:07.949Z,17.24
2018-11-11T15:33:35.964Z,17.20
2018-11-11T15:36:04.096Z,17.16
2018-11-11T15:38:32.209Z,17.13
2018-11-11T15:41:00.348Z,17.08
2018-11-11T15:43:28.468Z,17.04
2018-11-11T15:45:56.573Z,16.97
2018-11-11T15:48:24.670Z,16.88
2018-11-11T15:50:52.781Z,16.86
2018-11-11T15:53:20.917Z,16.82
2018-11-11T15:55:49.004Z,16.76
2018-11-11T15:58:17.148Z,16.73
2018-11-11T16:00:45.262Z,16.71
2018-11-11T16:03:13.395Z,16.66
2018-11-11T16:05:41.511Z,16.63
2018-11-11T16:08:09.635Z,16.56
2018-11-11T16:10:37.777Z,16.52
2018-11-11T16:13:05.837Z,16.49
2018-11-11T16:15:35.611Z,16.45
2018-11-11T16:18:05.361Z,16.41
2018-11-11T16:20:33.514Z,16.35
2018-11-11T16:23:02.636Z,16.34
2018-11-11T16:25:30.834Z,16.31
2018-11-11T16:27:58.868Z,16.27
2018-11-11T16:30:28.589Z,16.26
2018-11-11T16:32:57.308Z,16.23
2018-11-11T16:35:26.601Z,16.19
2018-11-11T16:37:54.798Z,16.15
2018-11-11T16:40:24.282Z,16.10
2018-11-11T16:42:52.649Z,16.07
2018-11-11T16:45:22.976Z,16.02
2018-11-11T16:47:51.180Z,15.98
2018-11-11T16:50:21.936Z,15.97
2018-11-11T16:52:50.635Z,15.94
2018-11-11T16:55:20.112Z,15.94
2018-11-11T16:57:48.323Z,15.90
2018-11-11T17:00:19.940Z,15.85
2018-11-11T17:02:48.710Z,15.83
2018-11-11T17:05:18.419Z,15.81
2018-11-11T17:07:46.731Z,15.78
2018-11-11T17:10:16.242Z,15.78
2018-11-11T17:12:45.292Z,15.75
2018-11-11T17:15:15.850Z,15.73
2018-11-11T17:17:43.912Z,15.66
2018-11-11T17:20:14.215Z,15.67
2018-11-11T17:22:42.678Z,15.65
2018-11-11T17:25:12.025Z,15.63
2018-11-11T17:27:40.139Z,15.58
2018-11-11T17:30:10.706Z,15.58
2018-11-11T17:32:38.949Z,15.58
2018-11-11T17:35:07.836Z,15.56
2018-11-11T17:37:35.929Z,15.51
2018-11-11T17:40:05.089Z,15.40
2018-11-11T17:42:33.168Z,15.32
2018-11-11T17:45:01.270Z,15.34
2018-11-11T17:47:29.562Z,15.41
2018-11-11T17:49:57.717Z,15.46
2018-11-11T17:52:26.121Z,15.45
2018-11-11T17:54:54.233Z,15.52
2018-11-11T17:57:22.346Z,15.54
2018-11-11T17:59:50.507Z,15.59
2018-11-11T18:02:18.654Z,15.58
2018-11-11T18:04:46.940Z,15.53
2018-11-11T18:07:15.097Z,15.54
2018-11-11T18:09:43.209Z,15.52
2018-11-11T18:12:11.312Z,15.56
2018-11-11T18:14:39.474Z,15.51
2018-11-11T18:17:07.627Z,15.48
2018-11-11T18:19:35.753Z,15.47
2018-11-11T18:22:03.846Z,15.44
2018-11-11T18:24:31.961Z,15.45
2018-11-11T18:27:00.122Z,15.44
2018-11-11T18:29:28.359Z,15.42
2018-11-11T18:31:56.485Z,15.40
2018-11-11T18:34:24.691Z,15.39
2018-11-11T18:36:52.775Z,15.34
2018-11-11T18:39:20.869Z,15.28
2018-11-11T18:41:49.025Z,15.28
2018-11-11T18:44:17.172Z,15.29
2018-11-11T18:46:45.254Z,15.21
2018-11-11T18:49:13.515Z,15.22
2018-11-11T18:51:41.604Z,15.17
2018-11-11T18:54:09.711Z,15.19
2018-11-11T18:56:37.920Z,15.16
2018-11-11T18:59:06.189Z,15.17
2018-11-11T19:01:34.309Z,15.15
2018-11-11T19:04:02.396Z,15.16
2018-11-11T19:06:30.483Z,15.13
2018-11-11T19:08:58.673Z,15.12
2018-11-11T19:11:26.818Z,15.09
2018-11-11T19:13:54.933Z,15.14
2018-11-11T19:16:23.034Z,15.15
2018-11-11T19:18:51.255Z,15.15
2018-11-11T19:21:19.311Z,15.13
2018-11-11T19:23:47.524Z,15.16
2018-11-11T19:26:15.660Z,15.14
2018-11-11T19:28:43.793Z,15.09
2018-11-11T19:31:11.951Z,15.07
2018-11-11T19:33:40.506Z,15.11
2018-11-11T19:36:08.605Z,15.09
2018-11-11T19:38:36.714Z,15.06
2018-11-11T19:41:05.066Z,15.09
2018-11-11T19:43:33.186Z,15.06
2018-11-11T19:46:01.257Z,15.00
2018-11-11T19:48:29.350Z,14.96
2018-11-11T19:50:57.457Z,14.94
2018-11-11T19:53:25.573Z,14.90
2018-11-11T19:55:53.633Z,14.84
2018-11-11T19:58:21.705Z,14.87
2018-11-11T20:00:49.810Z,14.87
2018-11-11T20:03:17.972Z,14.88
2018-11-11T20:05:46.130Z,14.87
2018-11-11T20:08:14.144Z,14.86
2018-11-11T20:10:42.203Z,14.84
2018-11-11T20:13:10.293Z,14.80
2018-11-11T20:15:38.375Z,14.81
2018-11-11T20:18:06.523Z,14.71
2018-11-11T20:20:38.073Z,14.77
2018-11-11T20:23:06.322Z,14.78
2018-11-11T20:25:34.771Z,14.72
2018-11-11T20:28:02.977Z,14.78
2018-11-11T20:30:32.557Z,14.76
2018-11-11T20:33:00.703Z,14.78
2018-11-11T20:35:30.167Z,14.75
2018-11-11T20:37:58.209Z,14.76
2018-11-11T20:40:27.219Z,14.72
2018-11-11T20:42:55.847Z,14.72
2018-11-11T20:45:26.744Z,14.69
2018-11-11T20:47:55.037Z,14.68
2018-11-11T20:50:24.638Z,14.65
2018-11-11T20:52:54.429Z,14.64
2018-11-11T20:55:22.801Z,14.56
2018-11-11T20:57:51.240Z,14.58
2018-11-11T21:00:20.796Z,14.53
2018-11-11T21:02:48.923Z,14.47
2018-11-11T21:05:19.388Z,14.48
2018-11-11T21:07:47.589Z,14.45
2018-11-11T21:10:17.831Z,14.44
2018-11-11T21:12:45.899Z,14.43
2018-11-11T21:15:18.289Z,14.37
2018-11-11T21:17:46.922Z,14.37
2018-11-11T21:20:17.487Z,14.35
2018-11-11T21:22:45.591Z,14.31
2018-11-11T21:25:13.827Z,14.28
2018-11-11T21:27:42.899Z,14.27
2018-11-11T21:30:14.552Z,14.26
2018-11-11T21:32:42.697Z,14.26
2018-11-11T21:35:11.330Z,14.23
2018-11-11T21:37:39.960Z,14.20
2018-11-11T21:40:09.405Z,14.22
2018-11-11T21:42:38.185Z,14.20
2018-11-11T21:45:07.496Z,14.20
2018-11-11T21:47:35.724Z,14.15
2018-11-11T21:50:04.005Z,14.16
2018-11-11T21:52:32.137Z,14.13
2018-11-11T21:55:00.193Z,14.05
2018-11-11T21:57:29.477Z,14.03
2018-11-11T21:59:57.603Z,14.02
2018-11-11T22:02:25.762Z,14.04
2018-11-11T22:04:53.836Z,14.02
2018-11-11T22:07:21.918Z,13.99
2018-11-11T22:09:50.030Z,14.02
2018-11-11T22:12:18.081Z,13.96
2018-11-11T22:14:46.169Z,13.90
2018-11-11T22:17:14.462Z,13.92
2018-11-11T22:19:42.574Z,13.92
2018-11-11T22:22:10.652Z,13.86
2018-11-11T22:24:38.729Z,13.92
2018-11-11T22:27:06.928Z,13.95
2018-11-11T22:29:35.032Z,13.95
2018-11-11T22:32:03.109Z,13.93
2018-11-11T22:34:31.327Z,13.95
2018-11-11T22:36:59.448Z,13.99
2018-11-11T22:39:27.577Z,14.01
2018-11-11T22:41:55.635Z,13.86
2018-11-11T22:44:23.756Z,13.90
2018-11-11T22:46:51.848Z,13.92
2018-11-11T22:49:19.927Z,13.93
2018-11-11T22:51:47.994Z,13.93
2018-11-11T22:54:16.076Z,13.98
2018-11-11T22:56:44.168Z,14.02
2018-11-11T22:59:12.369Z,13.99
2018-11-11T23:01:40.480Z,13.97
2018-11-11T23:04:08.578Z,14.01
2018-11-11T23:06:36.709Z,13.93
2018-11-11T23:09:08.789Z,13.90
2018-11-11T23:11:36.926Z,13.91
2018-11-11T23:14:05.182Z,13.91
2018-11-11T23:16:33.414Z,13.96
2018-11-11T23:19:01.499Z,13.89
2018-11-11T23:21:29.596Z,13.87
2018-11-11T23:23:57.721Z,13.81
2018-11-11T23:26:25.788Z,13.78
2018-11-11T23:28:53.902Z,13.79
2018-11-11T23:31:21.977Z,13.75
2018-11-11T23:33:50.088Z,13.71
2018-11-11T23:36:18.165Z,13.75
2018-11-11T23:38:46.421Z,13.68
2018-11-11T23:41:14.524Z,13.71
2018-11-11T23:43:42.713Z,13.66
2018-11-11T23:46:10.813Z,13.67
2018-11-11T23:48:38.930Z,13.60
2018-11-11T23:51:07.003Z,13.67
2018-11-11T23:53:35.156Z,13.64
2018-11-11T23:56:03.234Z,13.60
2018-11-11T23:58:31.324Z,13.66
